createdAt,value
2022-12-29T11:17:31.037Z,14.04
2022-12-29T11:18:29.430Z,14.05
2022-12-29T11:19:30.019Z,14.03
2022-12-29T11:20:29.411Z,14.15
2022-12-29T11:21:29.984Z,14.22
2022-12-29T11:22:29.685Z,14.22
2022-12-29T11:23:30.849Z,14.18
2022-12-29T11:24:29.721Z,14.29
2022-12-29T11:25:30.709Z,14.2
2022-12-29T11:26:37.615Z,14.2
2022-12-29T11:27:30.670Z,14.23
2022-12-29T11:28:29.562Z,14.25
2022-12-29T11:29:30.091Z,14.25
2022-12-29T11:30:29.610Z,14.23
2022-12-29T11:31:29.172Z,14.25
2022-12-29T11:32:33.667Z,14.3
2022-12-29T11:33:30.119Z,14.22
2022-12-29T11:34:29.571Z,14.12
2022-12-29T11:35:30.980Z,14.12
2022-12-29T11:36:29.388Z,14
2022-12-29T11:37:31.076Z,14.07
2022-12-29T11:38:29.780Z,13.95
2022-12-29T11:39:30.378Z,13.95
2022-12-29T11:40:29.717Z,13.85
2022-12-29T11:41:30.432Z,13.89
2022-12-29T11:42:29.588Z,13.77
2022-12-29T11:43:31.491Z,13.78
2022-12-29T11:44:29.964Z,13.79
2022-12-29T11:45:29.327Z,13.81
2022-12-29T11:46:30.080Z,13.77
2022-12-29T11:47:31.360Z,13.97
2022-12-29T11:48:29.966Z,13.95
2022-12-29T11:49:29.892Z,14.03
2022-12-29T11:50:29.996Z,14.05
2022-12-29T11:51:31.630Z,13.99
2022-12-29T11:52:29.804Z,13.93
2022-12-29T11:53:30.406Z,13.85
2022-12-29T11:54:29.785Z,13.79
2022-12-29T11:55:29.851Z,13.83
2022-12-29T11:56:30.155Z,13.83
2022-12-29T11:57:29.868Z,13.9
2022-12-29T11:58:29.902Z,13.87
2022-12-29T11:59:29.970Z,13.81
2022-12-29T12:00:29.622Z,13.79
2022-12-29T12:01:30.094Z,13.78
2022-12-29T12:02:29.718Z,13.77
2022-12-29T12:03:30.134Z,13.77
2022-12-29T12:04:30.474Z,13.77
2022-12-29T12:05:30.014Z,13.79
2022-12-29T12:06:29.764Z,13.79
2022-12-29T12:07:29.640Z,13.79
2022-12-29T12:08:29.565Z,13.9
2022-12-29T12:09:29.945Z,14.1
2022-12-29T12:10:29.739Z,14.15
2022-12-29T12:11:30.010Z,14.22
2022-12-29T12:12:29.540Z,14.23
2022-12-29T12:13:30.070Z,14.23
2022-12-29T12:14:30.136Z,14.23
2022-12-29T12:15:30.112Z,14.28
2022-12-29T12:16:30.047Z,14.25
2022-12-29T12:17:29.891Z,14.28
2022-12-29T12:18:30.138Z,14.26
2022-12-29T12:19:30.131Z,14.2
2022-12-29T12:20:29.950Z,14.26
2022-12-29T12:21:30.157Z,14.3
2022-12-29T12:22:30.135Z,14.32
2022-12-29T12:23:29.881Z,14.35
2022-12-29T12:24:29.875Z,14.41
2022-12-29T12:25:30.471Z,14.4
2022-12-29T12:26:30.293Z,14.48
2022-12-29T12:27:30.319Z,14.41
2022-12-29T12:28:37.214Z,14.37
2022-12-29T12:29:30.325Z,14.4
2022-12-29T12:30:30.357Z,14.47
2022-12-29T12:31:30.578Z,14.4
2022-12-29T12:32:30.379Z,14.51
2022-12-29T12:33:31.100Z,14.43
2022-12-29T12:34:30.396Z,14.45
2022-12-29T12:35:30.459Z,14.43
2022-12-29T12:36:30.725Z,14.5
2022-12-29T12:37:30.375Z,14.51
2022-12-29T12:38:30.255Z,14.5
2022-12-29T12:39:30.572Z,14.58
2022-12-29T12:40:30.251Z,14.51
2022-12-29T12:41:30.484Z,14.44
2022-12-29T12:42:30.782Z,14.44
2022-12-29T12:43:30.636Z,14.36
2022-12-29T12:44:30.385Z,14.32
2022-12-29T12:45:29.880Z,14.29
2022-12-29T12:46:30.521Z,14.1
2022-12-29T12:47:30.482Z,14.12
2022-12-29T12:48:30.259Z,14.04
2022-12-29T12:49:30.493Z,14.04
2022-12-29T12:50:30.391Z,13.85
2022-12-29T12:51:30.307Z,13.89
2022-12-29T12:52:30.637Z,13.81
2022-12-29T12:53:30.651Z,13.85
2022-12-29T12:54:30.783Z,13.74
2022-12-29T12:55:30.692Z,13.72
2022-12-29T12:56:30.565Z,13.71
2022-12-29T12:57:30.625Z,13.59
2022-12-29T12:58:30.482Z,13.65
2022-12-29T12:59:30.453Z,13.67
2022-12-29T13:00:30.699Z,13.62
2022-12-29T13:01:31.379Z,13.6
2022-12-29T13:02:31.862Z,13.6
2022-12-29T13:03:30.852Z,13.56
2022-12-29T13:04:30.666Z,13.56
2022-12-29T13:05:32.133Z,13.57
2022-12-29T13:06:30.704Z,13.62
2022-12-29T13:07:30.752Z,13.53
2022-12-29T13:08:30.821Z,13.54
2022-12-29T13:09:30.754Z,13.63
2022-12-29T13:10:30.956Z,14.03
2022-12-29T13:11:30.871Z,14.17
2022-12-29T13:12:30.881Z,14.26
2022-12-29T13:13:31.041Z,14.28
2022-12-29T13:14:30.809Z,14.18
2022-12-29T13:15:30.599Z,14
2022-12-29T13:16:30.812Z,13.87
2022-12-29T13:17:30.939Z,13.89
2022-12-29T13:18:31.025Z,13.75
2022-12-29T13:19:31.252Z,13.81
2022-12-29T13:20:30.982Z,13.83
2022-12-29T13:21:30.618Z,13.67
2022-12-29T13:22:30.927Z,13.74
2022-12-29T13:23:31.012Z,13.7
2022-12-29T13:24:31.134Z,13.62
2022-12-29T13:25:31.307Z,13.6
2022-12-29T13:26:31.491Z,13.57
2022-12-29T13:27:39.656Z,13.38
2022-12-29T13:28:31.028Z,13.46
2022-12-29T13:29:31.540Z,13.41
2022-12-29T13:30:31.124Z,13.31
2022-12-29T13:31:31.434Z,13.33
2022-12-29T13:32:31.190Z,13.38
2022-12-29T13:33:31.167Z,13.33
2022-12-29T13:34:31.098Z,13.28
2022-12-29T13:35:31.172Z,13.33
2022-12-29T13:36:31.236Z,13.33
2022-12-29T13:37:32.043Z,13.2
2022-12-29T13:38:30.968Z,13.16
2022-12-29T13:39:31.363Z,13.16
2022-12-29T13:40:31.264Z,13.15
2022-12-29T13:41:31.160Z,13.12
2022-12-29T13:42:31.626Z,13.04
2022-12-29T13:43:31.374Z,12.95
2022-12-29T13:44:37.297Z,12.93
2022-12-29T13:45:31.302Z,12.79
2022-12-29T13:46:31.519Z,12.76
2022-12-29T13:47:31.550Z,12.76
2022-12-29T13:48:31.947Z,12.67
2022-12-29T13:49:31.862Z,12.8
2022-12-29T13:50:32.112Z,12.64
2022-12-29T13:51:33.236Z,12.65
2022-12-29T13:52:31.168Z,12.65
2022-12-29T13:53:31.002Z,12.55
2022-12-29T13:54:31.340Z,12.53
2022-12-29T13:55:31.194Z,12.4
2022-12-29T13:56:31.372Z,12.39
2022-12-29T13:57:32.767Z,12.4
2022-12-29T13:58:31.501Z,12.4
2022-12-29T13:59:31.578Z,12.36
2022-12-29T14:00:31.083Z,12.28
2022-12-29T14:01:31.657Z,12.28
2022-12-29T14:02:32.410Z,12.28
2022-12-29T14:03:35.503Z,12.21
2022-12-29T14:04:31.496Z,12.22
2022-12-29T14:05:31.265Z,12.15
2022-12-29T14:06:31.528Z,12.18
2022-12-29T14:07:31.546Z,12.1
2022-12-29T14:08:31.467Z,12.06
2022-12-29T14:09:38.315Z,12.15
2022-12-29T14:10:31.834Z,12.1
2022-12-29T14:11:31.667Z,12.09
2022-12-29T14:12:33.147Z,12.06
2022-12-29T14:13:33.094Z,11.99
2022-12-29T14:14:32.104Z,12.06
2022-12-29T14:15:31.642Z,12.09
2022-12-29T14:16:31.510Z,12.1
2022-12-29T14:17:31.530Z,12
2022-12-29T14:18:32.371Z,12.15
2022-12-29T14:19:31.546Z,12.09
2022-12-29T14:20:31.643Z,12.18
2022-12-29T14:21:31.189Z,12.07
2022-12-29T14:22:37.265Z,12.09
2022-12-29T14:23:31.359Z,12.15
2022-12-29T14:24:31.394Z,11.95
2022-12-29T14:25:32.344Z,11.99
2022-12-29T14:26:31.665Z,11.99
2022-12-29T14:27:31.666Z,11.94
2022-12-29T14:28:31.476Z,11.95
2022-12-29T14:29:31.774Z,11.83
2022-12-29T14:30:32.387Z,11.87
2022-12-29T14:31:32.515Z,11.77
2022-12-29T14:32:31.817Z,11.68
2022-12-29T14:33:31.779Z,11.68
2022-12-29T14:34:32.221Z,11.6
2022-12-29T14:35:32.237Z,11.5
2022-12-29T14:36:31.538Z,11.47
2022-12-29T14:37:31.610Z,11.45
2022-12-29T14:38:31.839Z,11.32
2022-12-29T14:39:32.072Z,11.4
2022-12-29T14:40:31.661Z,11.4
2022-12-29T14:41:31.998Z,11.37
2022-12-29T14:42:32.772Z,11.26
2022-12-29T14:43:31.948Z,11.25
2022-12-29T14:44:32.233Z,11.25
2022-12-29T14:45:31.767Z,11.22
2022-12-29T14:46:33.544Z,11.18
2022-12-29T14:47:31.881Z,11.19
2022-12-29T14:48:31.983Z,11.11
2022-12-29T14:49:31.630Z,11.07
2022-12-29T14:50:31.796Z,11.08
2022-12-29T14:51:32.064Z,11.1
2022-12-29T14:52:32.453Z,11.11
2022-12-29T14:53:32.419Z,11.15
2022-12-29T14:54:31.882Z,11.17
2022-12-29T14:55:31.987Z,11.1
2022-12-29T14:56:31.986Z,11
2022-12-29T14:57:32.016Z,10.97
2022-12-29T14:58:31.744Z,10.87
2022-12-29T14:59:32.957Z,10.93
2022-12-29T15:00:32.257Z,10.9
2022-12-29T15:01:32.502Z,10.76
2022-12-29T15:02:32.723Z,10.79
2022-12-29T15:03:31.981Z,10.82
2022-12-29T15:04:32.616Z,10.86
2022-12-29T15:05:31.903Z,10.84
2022-12-29T15:06:32.146Z,10.82
2022-12-29T15:07:32.098Z,10.9
2022-12-29T15:08:32.170Z,10.93
2022-12-29T15:09:32.169Z,10.92
2022-12-29T15:10:33.234Z,11
2022-12-29T15:11:31.853Z,10.99
2022-12-29T15:12:31.983Z,11
2022-12-29T15:13:32.081Z,10.99
2022-12-29T15:14:32.123Z,11.07
2022-12-29T15:15:32.245Z,11.1
2022-12-29T15:16:32.343Z,11.12
2022-12-29T15:17:31.936Z,11.07
2022-12-29T15:18:32.181Z,11.12
2022-12-29T15:19:33.466Z,11.11
2022-12-29T15:20:32.494Z,11.08
2022-12-29T15:21:32.592Z,11.11
2022-12-29T15:22:33.445Z,11.18
2022-12-29T15:23:31.969Z,11.12
2022-12-29T15:24:33.854Z,11.15
2022-12-29T15:25:32.545Z,11.1
2022-12-29T15:26:32.269Z,11.1
2022-12-29T15:27:32.460Z,10.96
2022-12-29T15:28:32.796Z,11.04
2022-12-29T15:29:32.081Z,10.9
2022-12-29T15:30:32.236Z,10.82
2022-12-29T15:31:35.943Z,10.84
2022-12-29T15:32:33.102Z,10.79
2022-12-29T15:33:32.748Z,10.69
2022-12-29T15:34:32.594Z,10.69
2022-12-29T15:35:31.935Z,10.57
2022-12-29T15:36:32.416Z,10.51
2022-12-29T15:37:32.144Z,10.35
2022-12-29T15:38:43.587Z,10.31
2022-12-29T15:39:32.447Z,10.28
2022-12-29T15:40:32.655Z,10.17
2022-12-29T15:41:32.366Z,10.2
2022-12-29T15:42:31.989Z,10.1
2022-12-29T15:43:33.725Z,10.01
2022-12-29T15:44:32.500Z,9.99
2022-12-29T15:45:33.043Z,10.02
2022-12-29T15:46:32.702Z,10.05
2022-12-29T15:47:32.550Z,10.01
2022-12-29T15:48:32.557Z,9.97
2022-12-29T15:49:37.345Z,9.83
2022-12-29T15:50:32.618Z,9.79
2022-12-29T15:51:32.841Z,9.79
2022-12-29T15:52:32.578Z,9.8
2022-12-29T15:53:34.288Z,9.76
2022-12-29T15:54:32.542Z,9.76
2022-12-29T15:55:33.120Z,9.74
2022-12-29T15:56:33.031Z,9.69
2022-12-29T15:57:32.568Z,9.66
2022-12-29T15:58:32.629Z,9.64
2022-12-29T15:59:32.372Z,9.55
2022-12-29T16:00:32.744Z,9.61
2022-12-29T16:01:32.968Z,9.47
2022-12-29T16:02:33.562Z,9.54
2022-12-29T16:03:32.993Z,9.48
2022-12-29T16:04:43.197Z,9.41
2022-12-29T16:05:32.606Z,9.37
2022-12-29T16:06:32.645Z,9.25
2022-12-29T16:07:41.517Z,9.25
2022-12-29T16:08:32.449Z,9.22
2022-12-29T16:09:32.580Z,9.19
2022-12-29T16:10:33.119Z,9.14
2022-12-29T16:11:32.818Z,9.14
2022-12-29T16:12:32.945Z,9.04
2022-12-29T16:13:40.352Z,9.04
2022-12-29T16:14:33.053Z,9.11
2022-12-29T16:15:32.483Z,9.04
2022-12-29T16:16:32.865Z,8.97
2022-12-29T16:17:32.588Z,8.91
2022-12-29T16:18:32.774Z,8.85
2022-12-29T16:19:32.970Z,8.99
2022-12-29T16:20:34.050Z,8.95
2022-12-29T16:21:32.769Z,9.03
2022-12-29T16:22:33.136Z,8.99
2022-12-29T16:23:32.756Z,8.97
2022-12-29T16:24:33.049Z,8.89
2022-12-29T16:25:32.868Z,8.97
2022-12-29T16:26:32.532Z,8.94
2022-12-29T16:27:32.782Z,8.87
2022-12-29T16:28:32.691Z,8.79
2022-12-29T16:29:32.736Z,8.87
2022-12-29T16:30:38.888Z,8.74
2022-12-29T16:31:33.178Z,8.66
2022-12-29T16:32:32.857Z,8.67
2022-12-29T16:33:32.583Z,8.71
2022-12-29T16:34:32.898Z,8.66
2022-12-29T16:35:32.663Z,8.58
2022-12-29T16:36:32.869Z,8.63
2022-12-29T16:37:32.875Z,8.52
2022-12-29T16:38:32.897Z,8.46
2022-12-29T16:39:32.934Z,8.37
2022-12-29T16:40:32.637Z,8.38
2022-12-29T16:41:33.234Z,8.37
2022-12-29T16:42:32.795Z,8.33
2022-12-29T16:43:32.975Z,8.27
2022-12-29T16:44:32.938Z,8.34
2022-12-29T16:45:33.152Z,8.33
2022-12-29T16:46:33.929Z,8.33
2022-12-29T16:47:33.810Z,8.34
2022-12-29T16:48:32.932Z,8.34
2022-12-29T16:49:34.034Z,8.3
2022-12-29T16:50:33.605Z,8.34
2022-12-29T16:51:33.103Z,8.15
2022-12-29T16:52:33.421Z,8.28
2022-12-29T16:53:33.066Z,8.12
2022-12-29T16:54:33.102Z,8.15
2022-12-29T16:55:32.802Z,8.34
2022-12-29T16:56:33.053Z,8.27
2022-12-29T16:57:33.520Z,8.37
2022-12-29T16:58:32.861Z,8.18
2022-12-29T16:59:33.179Z,8.27
2022-12-29T17:00:33.113Z,8.27
2022-12-29T17:01:33.452Z,8.19
2022-12-29T17:02:33.588Z,8.12
2022-12-29T17:03:33.243Z,8.1
2022-12-29T17:04:33.086Z,8.09
2022-12-29T17:05:32.846Z,8.06
2022-12-29T17:06:32.892Z,7.97
2022-12-29T17:07:33.222Z,7.88
2022-12-29T17:08:32.849Z,7.77
2022-12-29T17:09:33.736Z,7.87
2022-12-29T17:10:32.886Z,7.76
2022-12-29T17:11:33.260Z,7.61
2022-12-29T17:12:32.922Z,7.69
2022-12-29T17:13:33.261Z,7.56
2022-12-29T17:14:33.258Z,7.57
2022-12-29T17:15:33.403Z,7.51
2022-12-29T17:16:33.085Z,7.39
2022-12-29T17:17:32.771Z,7.4
2022-12-29T17:18:32.949Z,7.5
2022-12-29T17:19:32.962Z,7.4
2022-12-29T17:20:33.199Z,7.43
2022-12-29T17:21:33.324Z,7.39
2022-12-29T17:22:33.069Z,7.4
2022-12-29T17:23:33.302Z,7.32
2022-12-29T17:24:33.310Z,7.29
2022-12-29T17:25:33.450Z,7.21
2022-12-29T17:26:32.714Z,7.24
2022-12-29T17:27:33.005Z,7.2
2022-12-29T17:28:33.333Z,7.29
2022-12-29T17:29:33.165Z,7.2
2022-12-29T17:30:38.456Z,7.17
2022-12-29T17:31:33.791Z,7.25
2022-12-29T17:32:33.084Z,7.28
2022-12-29T17:33:33.346Z,7.18
2022-12-29T17:34:33.362Z,7.29
2022-12-29T17:35:33.072Z,7.15
2022-12-29T17:36:33.074Z,7.28
2022-12-29T17:37:33.508Z,7.28
2022-12-29T17:38:33.287Z,7.2
2022-12-29T17:39:33.512Z,7.13
2022-12-29T17:40:33.424Z,7.21
2022-12-29T17:41:33.694Z,7.21
2022-12-29T17:42:33.257Z,7.14
2022-12-29T17:43:41.480Z,7.17
2022-12-29T17:44:32.883Z,7.15
2022-12-29T17:45:33.450Z,7.14
2022-12-29T17:46:33.647Z,7.02
2022-12-29T17:47:33.437Z,7.13
2022-12-29T17:48:33.732Z,7.07
2022-12-29T17:49:33.894Z,7.18
2022-12-29T17:50:33.916Z,7.03
2022-12-29T17:51:33.504Z,7.03
2022-12-29T17:52:33.416Z,7.06
2022-12-29T17:53:33.415Z,7.03
2022-12-29T17:54:33.473Z,7.24
2022-12-29T17:55:41.228Z,7.17
2022-12-29T17:56:33.473Z,7.2
2022-12-29T17:57:33.493Z,7.18
2022-12-29T17:58:33.491Z,7.15
2022-12-29T17:59:33.727Z,7.24
2022-12-29T18:00:33.275Z,7.21
2022-12-29T18:01:46.106Z,7.18
2022-12-29T18:02:34.210Z,7.1
2022-12-29T18:03:34.617Z,7.2
2022-12-29T18:04:33.586Z,7.21
2022-12-29T18:05:33.269Z,7.18
2022-12-29T18:06:34.033Z,7.2
2022-12-29T18:07:40.399Z,7.21
2022-12-29T18:08:33.833Z,7.25
2022-12-29T18:09:33.628Z,7.36
2022-12-29T18:10:34.608Z,7.28
2022-12-29T18:11:33.321Z,7.29
2022-12-29T18:12:33.534Z,7.5
2022-12-29T18:13:49.261Z,7.43
2022-12-29T18:14:33.592Z,7.47
2022-12-29T18:15:33.647Z,7.43
2022-12-29T18:16:34.853Z,7.47
2022-12-29T18:17:33.651Z,7.48
2022-12-29T18:18:34.377Z,7.48
2022-12-29T18:19:40.320Z,7.48
2022-12-29T18:20:33.593Z,7.53
2022-12-29T18:21:33.679Z,7.56
2022-12-29T18:22:34.025Z,7.51
2022-12-29T18:23:33.689Z,7.53
2022-12-29T18:24:33.872Z,7.54
2022-12-29T18:25:34.253Z,7.51
2022-12-29T18:26:34.206Z,7.4
2022-12-29T18:27:33.822Z,7.47
2022-12-29T18:28:33.680Z,7.47
2022-12-29T18:29:33.810Z,7.54
2022-12-29T18:30:33.591Z,7.53
2022-12-29T18:31:33.997Z,7.53
2022-12-29T18:32:33.727Z,7.48
2022-12-29T18:33:33.805Z,7.61
2022-12-29T18:34:33.765Z,7.73
2022-12-29T18:35:33.889Z,7.63
2022-12-29T18:36:33.568Z,7.47
2022-12-29T18:37:33.196Z,7.5
2022-12-29T18:38:33.879Z,7.53
2022-12-29T18:39:35.005Z,7.48
2022-12-29T18:40:33.242Z,7.48
2022-12-29T18:41:34.513Z,7.5
2022-12-29T18:42:33.209Z,7.5
2022-12-29T18:43:33.947Z,7.54
2022-12-29T18:44:33.838Z,7.57
2022-12-29T18:45:33.576Z,7.5
2022-12-29T18:46:34.035Z,7.5
2022-12-29T18:47:33.575Z,7.5
2022-12-29T18:48:33.820Z,7.5
2022-12-29T18:49:33.883Z,7.58
2022-12-29T18:50:33.833Z,7.57
2022-12-29T18:51:33.982Z,7.53
2022-12-29T18:52:33.595Z,7.51
2022-12-29T18:53:34.477Z,7.47
2022-12-29T18:54:34.040Z,7.54
2022-12-29T18:55:33.831Z,7.48
2022-12-29T18:56:33.607Z,7.42
2022-12-29T18:57:33.736Z,7.4
2022-12-29T18:58:38.677Z,7.35
2022-12-29T18:59:33.933Z,7.33
2022-12-29T19:00:34.014Z,7.32
2022-12-29T19:01:34.202Z,7.32
2022-12-29T19:02:34.549Z,7.23
2022-12-29T19:03:34.971Z,7.29
2022-12-29T19:04:33.990Z,7.35
2022-12-29T19:05:34.126Z,7.23
2022-12-29T19:06:33.662Z,7.33
2022-12-29T19:07:34.002Z,7.23
2022-12-29T19:08:33.982Z,7.2
2022-12-29T19:09:33.962Z,7.23
2022-12-29T19:10:33.972Z,7.2
2022-12-29T19:11:35.307Z,7.21
2022-12-29T19:12:33.826Z,7.14
2022-12-29T19:13:34.476Z,7.13
2022-12-29T19:14:34.289Z,7.13
2022-12-29T19:15:33.688Z,7.17
2022-12-29T19:16:33.757Z,7
2022-12-29T19:17:33.884Z,7.02
2022-12-29T19:19:10.381Z,7.17
2022-12-29T19:19:34.008Z,7.07
2022-12-29T19:20:34.059Z,7.06
2022-12-29T19:21:34.040Z,7.06
2022-12-29T19:22:34.095Z,7.06
2022-12-29T19:23:34.545Z,7.05
2022-12-29T19:24:34.016Z,7
2022-12-29T19:25:34.458Z,6.95
2022-12-29T19:26:34.808Z,6.97
2022-12-29T19:27:34.468Z,6.89
2022-12-29T19:28:34.158Z,6.96
2022-12-29T19:29:33.896Z,6.93
2022-12-29T19:30:34.121Z,6.82
2022-12-29T19:31:34.439Z,6.84
2022-12-29T19:32:34.685Z,6.84
2022-12-29T19:33:34.119Z,6.87
2022-12-29T19:34:33.881Z,6.93
2022-12-29T19:35:33.709Z,6.87
2022-12-29T19:36:34.560Z,6.97
2022-12-29T19:37:34.132Z,6.92
2022-12-29T19:38:33.868Z,6.92
2022-12-29T19:39:33.923Z,6.97
2022-12-29T19:40:33.862Z,6.95
2022-12-29T19:41:34.705Z,7.03
2022-12-29T19:42:34.195Z,7.06
2022-12-29T19:43:34.230Z,7.02
2022-12-29T19:44:34.191Z,7.18
2022-12-29T19:45:33.916Z,7.2
2022-12-29T19:46:34.078Z,7.21
2022-12-29T19:47:37.043Z,7.17
2022-12-29T19:48:34.214Z,7.17
2022-12-29T19:49:34.260Z,7.11
2022-12-29T19:50:34.283Z,7.17
2022-12-29T19:51:34.030Z,7.15
2022-12-29T19:52:34.191Z,7.15
2022-12-29T19:53:34.209Z,7.1
2022-12-29T19:54:34.331Z,7.06
2022-12-29T19:55:34.287Z,7.03
2022-12-29T19:56:34.867Z,7.06
2022-12-29T19:57:34.909Z,7.1
2022-12-29T19:58:33.997Z,7
2022-12-29T19:59:35.670Z,7.05
2022-12-29T20:00:35.000Z,7.06
2022-12-29T20:01:34.814Z,7.06
2022-12-29T20:02:35.532Z,6.87
2022-12-29T20:03:34.305Z,6.89
2022-12-29T20:04:34.281Z,6.93
2022-12-29T20:05:34.365Z,6.92
2022-12-29T20:06:34.148Z,6.89
2022-12-29T20:07:34.364Z,6.97
2022-12-29T20:08:34.093Z,6.95
2022-12-29T20:09:34.159Z,6.97
2022-12-29T20:10:34.998Z,6.88
2022-12-29T20:11:34.338Z,6.92
2022-12-29T20:12:34.717Z,6.96
2022-12-29T20:13:34.402Z,6.96
2022-12-29T20:14:34.369Z,6.92
2022-12-29T20:15:34.330Z,6.81
2022-12-29T20:16:44.605Z,6.78
2022-12-29T20:18:17.577Z,6.77
2022-12-29T20:18:34.935Z,6.81
2022-12-29T20:19:34.927Z,6.75
2022-12-29T20:20:34.987Z,6.78
2022-12-29T20:21:35.126Z,6.74
2022-12-29T20:22:34.956Z,6.72
2022-12-29T20:23:35.175Z,6.72
2022-12-29T20:24:34.988Z,6.62
2022-12-29T20:25:52.215Z,6.7
2022-12-29T20:26:35.583Z,6.66
2022-12-29T20:27:35.049Z,6.63
2022-12-29T20:28:35.127Z,6.66
2022-12-29T20:29:35.545Z,6.78
2022-12-29T20:30:35.015Z,6.7
2022-12-29T20:31:35.132Z,6.88
2022-12-29T20:32:35.049Z,6.85
2022-12-29T20:33:34.798Z,6.92
2022-12-29T20:34:34.774Z,6.67
2022-12-29T20:35:35.035Z,6.84
2022-12-29T20:36:35.040Z,6.85
2022-12-29T20:37:35.156Z,6.82
2022-12-29T20:38:35.636Z,6.75
2022-12-29T20:39:34.783Z,6.78
2022-12-29T20:40:37.006Z,6.78
2022-12-29T20:41:35.086Z,6.72
2022-12-29T20:42:35.095Z,6.75
2022-12-29T20:43:35.221Z,6.72
2022-12-29T20:44:35.135Z,6.63
2022-12-29T20:45:35.180Z,6.6
2022-12-29T20:46:46.416Z,6.57
2022-12-29T20:47:34.840Z,6.56
2022-12-29T20:48:35.178Z,6.67
2022-12-29T20:49:35.304Z,6.72
2022-12-29T20:50:35.114Z,6.51
2022-12-29T20:52:09.563Z,6.52
2022-12-29T20:52:35.227Z,6.57
2022-12-29T20:53:35.127Z,6.52
2022-12-29T20:54:42.105Z,6.54
2022-12-29T20:55:34.774Z,6.57
2022-12-29T20:56:35.812Z,6.52
2022-12-29T20:58:31.664Z,6.57
2022-12-29T20:59:33.191Z,6.49
2022-12-29T21:00:30.969Z,6.52
2022-12-29T21:01:31.119Z,6.57
2022-12-29T21:02:31.046Z,6.62
2022-12-29T21:03:30.733Z,6.6
2022-12-29T21:04:44.041Z,6.51
2022-12-29T21:05:32.285Z,6.51
2022-12-29T21:06:31.799Z,6.7
2022-12-29T21:07:31.855Z,6.66
2022-12-29T21:08:32.016Z,6.63
2022-12-29T21:09:32.391Z,6.67
2022-12-29T21:10:32.478Z,6.64
2022-12-29T21:11:32.430Z,6.64
2022-12-29T21:12:31.551Z,6.75
2022-12-29T21:13:31.610Z,6.77
2022-12-29T21:14:31.569Z,6.75
2022-12-29T21:15:31.610Z,6.77
2022-12-29T21:16:32.087Z,6.77
2022-12-29T21:17:31.638Z,6.82
2022-12-29T21:18:31.864Z,6.93
2022-12-29T21:19:31.887Z,6.89
2022-12-29T21:20:32.027Z,6.97
2022-12-29T21:21:31.710Z,6.88
2022-12-29T21:22:32.123Z,7.05
2022-12-29T21:23:31.676Z,6.88
2022-12-29T21:24:31.672Z,6.97
2022-12-29T21:25:31.991Z,6.92
2022-12-29T21:26:32.125Z,6.85
2022-12-29T21:27:32.925Z,6.88
2022-12-29T21:28:32.159Z,6.82
2022-12-29T21:29:31.820Z,6.77
2022-12-29T21:30:31.817Z,6.79
2022-12-29T21:31:32.091Z,6.81
2022-12-29T21:32:32.139Z,6.74
2022-12-29T21:33:32.006Z,6.77
2022-12-29T21:34:31.970Z,6.77
2022-12-29T21:35:32.008Z,6.84
2022-12-29T21:36:31.988Z,6.87
2022-12-29T21:37:32.028Z,6.92
2022-12-29T21:38:32.043Z,6.92
2022-12-29T21:39:32.664Z,7.03
2022-12-29T21:40:31.996Z,7.03
2022-12-29T21:41:33.243Z,7.06
2022-12-29T21:42:32.251Z,7.06
2022-12-29T21:43:31.777Z,6.99
2022-12-29T21:44:31.550Z,7.13
2022-12-29T21:45:32.076Z,7.21
2022-12-29T21:46:32.279Z,7.17
2022-12-29T21:47:32.857Z,7.2
2022-12-29T21:48:31.775Z,7.23
2022-12-29T21:49:32.093Z,7.21
2022-12-29T21:50:31.950Z,7.21
2022-12-29T21:51:35.698Z,7.2
2022-12-29T21:52:32.109Z,7.15
2022-12-29T21:53:32.294Z,7.07
2022-12-29T21:54:32.300Z,7.15
2022-12-29T21:55:32.344Z,7.06
2022-12-29T21:56:31.843Z,7.06
2022-12-29T21:57:32.191Z,6.96
2022-12-29T21:58:32.139Z,7.03
2022-12-29T21:59:31.897Z,6.88
2022-12-29T22:00:32.111Z,6.95
2022-12-29T22:01:32.934Z,6.96
2022-12-29T22:02:32.881Z,6.92
2022-12-29T22:03:33.024Z,6.88
2022-12-29T22:04:32.188Z,6.93
2022-12-29T22:05:32.161Z,6.87
2022-12-29T22:06:32.770Z,6.82
2022-12-29T22:07:32.482Z,6.93
2022-12-29T22:08:32.262Z,6.81
2022-12-29T22:09:32.438Z,6.89
2022-12-29T22:10:32.138Z,6.85
2022-12-29T22:11:32.184Z,6.84
2022-12-29T22:12:31.987Z,6.85
2022-12-29T22:13:32.253Z,6.77
2022-12-29T22:14:31.966Z,6.84
2022-12-29T22:15:32.959Z,6.82
2022-12-29T22:16:33.362Z,6.75
2022-12-29T22:17:43.688Z,6.75
2022-12-29T22:18:32.030Z,6.72
2022-12-29T22:19:32.253Z,6.75
2022-12-29T22:20:32.474Z,6.72
2022-12-29T22:21:31.780Z,6.75
2022-12-29T22:22:32.312Z,6.74
2022-12-29T22:23:32.299Z,6.69
2022-12-29T22:24:32.324Z,6.62
2022-12-29T22:25:32.425Z,6.6
2022-12-29T22:26:32.755Z,6.59
2022-12-29T22:27:32.067Z,6.57
2022-12-29T22:28:32.532Z,6.6
2022-12-29T22:29:32.171Z,6.59
2022-12-29T22:30:32.838Z,6.59
2022-12-29T22:31:33.339Z,6.54
2022-12-29T22:32:32.379Z,6.56
2022-12-29T22:33:32.237Z,6.51
2022-12-29T22:34:32.425Z,6.44
2022-12-29T22:35:32.411Z,6.45
2022-12-29T22:36:32.089Z,6.45
2022-12-29T22:37:32.192Z,6.45
2022-12-29T22:38:32.391Z,6.52
2022-12-29T22:39:32.418Z,6.56
2022-12-29T22:40:32.975Z,6.54
2022-12-29T22:41:32.518Z,6.54
2022-12-29T22:42:32.878Z,6.54
2022-12-29T22:43:32.467Z,6.57
2022-12-29T22:44:32.497Z,6.52
2022-12-29T22:45:32.537Z,6.51
2022-12-29T22:46:32.647Z,6.38
2022-12-29T22:47:32.220Z,6.39
2022-12-29T22:48:32.431Z,6.35
2022-12-29T22:49:32.535Z,6.28
2022-12-29T22:50:32.435Z,6.17
2022-12-29T22:51:32.460Z,6.07
2022-12-29T22:52:32.440Z,6.04
2022-12-29T22:53:32.282Z,5.94
2022-12-29T22:54:32.598Z,5.99
2022-12-29T22:55:32.466Z,6.04
2022-12-29T22:56:32.693Z,5.97
2022-12-29T22:57:32.375Z,5.91
2022-12-29T22:58:32.955Z,5.97
2022-12-29T22:59:32.978Z,5.93
2022-12-29T23:00:32.237Z,6.01
2022-12-29T23:01:33.026Z,5.87
2022-12-29T23:02:33.154Z,5.94
2022-12-29T23:03:32.520Z,5.98
2022-12-29T23:05:06.784Z,5.97
2022-12-29T23:05:32.577Z,5.98
2022-12-29T23:06:32.168Z,5.91
2022-12-29T23:07:32.315Z,5.91
2022-12-29T23:08:32.324Z,5.86
2022-12-29T23:09:32.528Z,5.97
2022-12-29T23:10:32.749Z,6.01
2022-12-29T23:11:33.077Z,5.94
2022-12-29T23:12:32.287Z,5.93
2022-12-29T23:13:34.144Z,6.01
2022-12-29T23:14:32.617Z,5.91
2022-12-29T23:15:33.952Z,6.01
2022-12-29T23:16:32.551Z,6.04
2022-12-29T23:17:33.068Z,6.16
2022-12-29T23:18:32.637Z,6.17
2022-12-29T23:19:32.512Z,6.12
2022-12-29T23:20:32.389Z,6.17
2022-12-29T23:21:32.659Z,6.14
2022-12-29T23:22:32.461Z,6.11
2022-12-29T23:23:32.814Z,6.19
2022-12-29T23:24:33.276Z,6.16
2022-12-29T23:25:33.766Z,6.09
2022-12-29T23:26:32.853Z,6.24
2022-12-29T23:27:33.786Z,6.16
2022-12-29T23:28:32.708Z,6.27
2022-12-29T23:29:33.344Z,6.26
2022-12-29T23:30:32.421Z,6.16
2022-12-29T23:31:33.082Z,6.19
2022-12-29T23:32:32.938Z,6.12
2022-12-29T23:33:32.730Z,6.17
2022-12-29T23:34:33.061Z,6.2
2022-12-29T23:35:33.222Z,6.19
2022-12-29T23:36:32.786Z,6.24
2022-12-29T23:37:33.867Z,6.24
2022-12-29T23:38:32.718Z,6.14
2022-12-29T23:39:33.376Z,6.2
2022-12-29T23:40:32.581Z,6.31
2022-12-29T23:41:33.380Z,6.24
2022-12-29T23:42:33.115Z,6.38
2022-12-29T23:43:34.293Z,6.33
2022-12-29T23:44:33.462Z,6.36
2022-12-29T23:45:32.809Z,6.46
2022-12-29T23:46:32.999Z,6.48
2022-12-29T23:47:33.158Z,6.57
2022-12-29T23:48:33.005Z,6.52
2022-12-29T23:49:32.865Z,6.57
2022-12-29T23:50:32.961Z,6.63
2022-12-29T23:51:32.565Z,6.63
2022-12-29T23:52:33.116Z,6.72
2022-12-29T23:53:33.260Z,6.74
2022-12-29T23:54:32.384Z,6.69
2022-12-29T23:55:32.604Z,6.64
2022-12-29T23:56:32.535Z,6.66
2022-12-29T23:57:32.924Z,6.69
2022-12-29T23:58:33.221Z,6.7
2022-12-29T23:59:33.075Z,6.78
